Time;durP1;ratioP1;P1;durP2;ratioP2;P2;SDS_P1;SDS_P2;PMS_P1;PMS_P2;Temp;Humidity;BMP_temperature;BMP_pressure;BME280_temperature;BME280_humidity;BME280_pressure;Samples;Min_cycle;Max_cycle;Signal;HPM_P1;HPM_P2
2022/09/28 00:00:38;;;;;;;3.03;2.25;;;;;;;12.06;100.00;63244.47;5043047;28;20198;-75
2022/09/28 00:03:06;;;;;;;2.72;1.80;;;;;;;12.05;100.00;63242.91;5044463;28;20218;-76
2022/09/28 00:05:33;;;;;;;2.65;2.13;;;;;;;12.03;100.00;63241.34;5043592;28;20232;-76
2022/09/28 00:08:00;;;;;;;3.30;2.13;;;;;;;11.95;100.00;63230.50;5043289;28;20263;-75
2022/09/28 00:10:27;;;;;;;2.03;1.90;;;;;;;11.93;100.00;63231.00;5039695;28;20237;-76
2022/09/28 00:12:55;;;;;;;1.92;1.85;;;;;;;11.94;100.00;63226.41;5039166;28;20223;-75
2022/09/28 00:15:23;;;;;;;2.25;1.98;;;;;;;11.91;100.00;63231.47;5029155;28;20261;-75
2022/09/28 00:17:50;;;;;;;7.90;3.10;;;;;;;11.97;100.00;63229.50;5035035;28;20324;-76
2022/09/28 00:20:19;;;;;;;2.22;2.00;;;;;;;11.93;100.00;63231.00;5044869;28;20499;-77
2022/09/28 00:22:46;;;;;;;2.53;2.40;;;;;;;11.91;100.00;63228.91;5043513;28;20467;-76
2022/09/28 00:25:15;;;;;;;2.85;2.40;;;;;;;11.91;100.00;63228.91;5042671;28;20198;-76
2022/09/28 00:27:42;;;;;;;4.63;2.42;;;;;;;11.91;100.00;63230.97;5043509;28;20256;-76
2022/09/28 00:30:10;;;;;;;4.00;2.00;;;;;;;11.99;100.00;63234.66;5047383;28;20197;-75
2022/09/28 00:32:37;;;;;;;3.15;2.85;;;;;;;11.99;100.00;63232.13;5043785;28;20244;-76
2022/09/28 00:35:04;;;;;;;4.65;2.38;;;;;;;11.96;100.00;63231.53;5042868;28;20371;-76
2022/09/28 00:37:32;;;;;;;1.77;1.67;;;;;;;11.99;100.00;63242.31;5045745;28;20217;-76
2022/09/28 00:40:00;;;;;;;4.05;2.20;;;;;;;12.01;100.00;63236.22;5044858;28;20198;-77
2022/09/28 00:42:27;;;;;;;1.90;1.80;;;;;;;12.05;100.00;63237.78;5043673;28;20511;-76
2022/09/28 00:44:54;;;;;;;5.63;2.72;;;;;;;12.09;100.00;63244.50;5043603;28;20518;-77
2022/09/28 00:47:48;;;;;;;2.67;1.85;;;;;;;11.99;100.00;63234.66;5044828;28;20232;-76
2022/09/28 00:50:22;;;;;;;7.93;2.13;;;;;;;12.01;100.00;63236.22;5042911;28;20202;-77
2022/09/28 00:52:55;;;;;;;6.53;2.17;;;;;;;12.07;100.00;63245.50;5043046;28;20214;-75
2022/09/28 00:55:30;;;;;;;1.95;1.85;;;;;;;12.09;100.00;63245.03;5038914;28;20198;-76
2022/09/28 00:58:00;;;;;;;1.75;1.65;;;;;;;12.12;100.00;63248.13;5043673;28;20240;-76
2022/09/28 01:00:27;;;;;;;1.77;1.65;;;;;;;12.05;100.00;63242.91;5042256;28;20242;-77
2022/09/28 01:02:55;;;;;;;2.35;2.17;;;;;;;11.98;100.00;63235.66;5044484;28;20213;-77
2022/09/28 01:05:23;;;;;;;3.70;1.73;;;;;;;11.97;100.00;63235.16;5044057;28;20202;-76
2022/09/28 01:07:51;;;;;;;1.90;1.80;;;;;;;11.91;100.00;63228.91;5044024;28;20252;-76
2022/09/28 01:10:18;;;;;;;1.60;1.60;;;;;;;11.96;100.00;63231.03;5043396;28;20243;-76
2022/09/28 01:12:46;;;;;;;2.85;1.80;;;;;;;12.01;100.00;63236.22;5041841;28;20230;-77
2022/09/28 01:15:14;;;;;;;4.93;1.70;;;;;;;11.91;100.00;63228.91;5042007;28;20205;-76
2022/09/28 01:17:54;;;;;;;1.50;1.50;;;;;;;11.93;100.00;63225.38;5044057;28;20222;-76
2022/09/28 01:20:33;;;;;;;3.90;1.88;;;;;;;12.03;100.00;63243.91;5045677;28;20202;-76
2022/09/28 01:23:32;;;;;;;3.10;1.48;;;;;;;12.05;100.00;63240.34;5041958;28;20217;-76
2022/09/28 01:26:19;;;;;;;1.90;1.70;;;;;;;11.90;100.00;63222.78;5042266;28;20491;-77
2022/09/28 01:28:52;;;;;;;1.88;1.77;;;;;;;11.91;100.00;63228.41;5044603;28;20222;-76
2022/09/28 01:31:24;;;;;;;2.05;1.95;;;;;;;11.83;100.00;63220.09;5041900;28;20198;-76
2022/09/28 01:34:00;;;;;;;2.20;2.10;;;;;;;11.83;100.00;63215.53;5024424;28;20222;-76
2022/09/28 01:36:33;;;;;;;2.40;1.73;;;;;;;11.78;100.00;63212.38;5024555;28;20210;-76
2022/09/28 01:39:05;;;;;;;5.97;1.90;;;;;;;11.76;100.00;63208.28;5041578;28;20246;-77
2022/09/28 01:41:36;;;;;;;2.33;2.20;;;;;;;11.71;100.00;63213.31;5041661;28;20261;-77
2022/09/28 01:44:08;;;;;;;2.60;2.40;;;;;;;11.80;100.00;63214.47;5045624;28;20198;-77
2022/09/28 01:46:40;;;;;;;2.00;1.90;;;;;;;11.90;100.00;63227.88;5043233;28;20201;-77
2022/09/28 01:49:13;;;;;;;2.28;2.17;;;;;;;11.93;100.00;63233.53;5041901;28;20198;-76
2022/09/28 01:51:42;;;;;;;2.42;2.22;;;;;;;11.93;100.00;63231.00;5045067;28;20240;-76
2022/09/28 01:54:13;;;;;;;3.03;2.63;;;;;;;12.00;100.00;63235.69;5038492;28;20390;-76
2022/09/28 01:56:47;;;;;;;5.38;2.40;;;;;;;12.14;100.00;63252.75;5033755;28;20198;-75
2022/09/28 01:59:18;;;;;;;2.20;2.10;;;;;;;12.21;100.00;63259.50;5041711;28;20225;-75
2022/09/28 02:01:52;;;;;;;2.22;2.15;;;;;;;12.13;100.00;63246.59;5024095;28;20230;-76
2022/09/28 02:04:22;;;;;;;2.60;2.47;;;;;;;12.12;100.00;63245.06;5032526;28;20202;-77
2022/09/28 02:06:56;;;;;;;2.22;2.13;;;;;;;12.16;100.00;63254.31;5043619;28;20276;-76
2022/09/28 02:09:29;;;;;;;2.55;2.42;;;;;;;12.07;100.00;63244.97;5044004;28;20438;-75
2022/09/28 02:12:02;;;;;;;2.70;2.50;;;;;;;12.02;100.00;63237.25;5043415;28;20226;-77
2022/09/28 02:14:30;;;;;;;1.83;1.77;;;;;;;12.00;100.00;63235.69;5048736;28;20194;-76
2022/09/28 02:16:58;;;;;;;2.45;2.30;;;;;;;12.01;100.00;63238.78;5045041;28;20213;-77
2022/09/28 02:19:27;;;;;;;2.83;2.63;;;;;;;12.03;100.00;63240.84;5046059;28;20234;-75
2022/09/28 02:21:59;;;;;;;2.65;2.45;;;;;;;11.94;100.00;63229.47;5049515;28;20226;-76
2022/09/28 02:24:33;;;;;;;2.63;2.53;;;;;;;11.88;100.00;63222.72;5046288;28;20359;-77
2022/09/28 02:27:10;;;;;;;2.90;2.70;;;;;;;11.83;100.00;63215.53;5046816;28;20313;-76
2022/09/28 02:29:36;;;;;;;7.30;2.50;;;;;;;11.86;100.00;63225.75;5047880;28;20200;-76
2022/09/28 02:32:03;;;;;;;3.13;2.92;;;;;;;11.77;100.00;63211.84;5045076;28;20225;-76
2022/09/28 02:34:30;;;;;;;3.40;2.75;;;;;;;11.79;100.00;63210.84;5044193;28;20217;-76
2022/09/28 02:36:57;;;;;;;3.65;3.10;;;;;;;11.75;100.00;63206.72;5047150;28;20230;-75
2022/09/28 02:39:25;;;;;;;3.00;2.80;;;;;;;11.58;100.00;63195.22;5036584;28;20305;-76
2022/09/28 02:42:01;;;;;;;3.80;3.60;;;;;;;11.55;100.00;63194.66;5037771;28;20277;-76
2022/09/28 02:44:46;;;;;;;4.78;3.67;;;;;;;11.58;100.00;63194.69;5046091;28;20232;-77
2022/09/28 02:47:21;;;;;;;3.28;3.08;;;;;;;11.58;100.00;63194.69;5046822;28;20222;-77
2022/09/28 02:49:57;;;;;;;3.78;3.05;;;;;;;11.59;100.00;63193.72;5045899;28;20430;-77
2022/09/28 02:52:49;;;;;;;3.70;3.50;;;;;;;11.58;100.00;63192.16;5044179;28;20244;-75
2022/09/28 02:55:29;;;;;;;3.65;3.45;;;;;;;11.52;100.00;63188.50;5043621;28;20422;-76
2022/09/28 02:58:24;;;;;;;5.18;4.32;;;;;;;11.59;100.00;63193.19;5027738;28;20226;-76
2022/09/28 03:00:58;;;;;;;4.18;3.80;;;;;;;11.61;100.00;63195.28;5039099;28;20201;-77
2022/09/28 03:03:37;;;;;;;3.88;3.42;;;;;;;11.60;100.00;63196.78;5047208;28;20221;-77
2022/09/28 03:06:11;;;;;;;3.67;3.47;;;;;;;11.58;100.00;63197.25;5045884;28;20212;-76
2022/09/28 03:08:44;;;;;;;3.63;3.42;;;;;;;11.58;100.00;63189.59;5046143;28;20236;-77
2022/09/28 03:11:17;;;;;;;3.47;3.28;;;;;;;11.50;100.00;63183.88;5031583;28;20217;-76
2022/09/28 03:13:44;;;;;;;4.22;3.67;;;;;;;11.42;100.00;63178.66;5045327;28;20222;-76
2022/09/28 03:16:14;;;;;;;4.32;3.95;;;;;;;11.46;100.00;63175.16;5048196;28;20252;-77
2022/09/28 03:18:42;;;;;;;5.63;3.63;;;;;;;11.46;100.00;63180.25;5046995;28;20233;-77
2022/09/28 03:21:11;;;;;;;4.10;3.70;;;;;;;11.46;100.00;63179.72;5042094;28;20206;-76
2022/09/28 03:23:37;;;;;;;3.97;3.65;;;;;;;11.55;100.00;63189.56;5044933;28;20222;-76
2022/09/28 03:26:05;;;;;;;5.13;3.42;;;;;;;11.63;100.00;63194.78;5046589;28;20194;-78
2022/09/28 03:28:33;;;;;;;4.25;3.67;;;;;;;11.58;100.00;63195.22;5044917;28;20229;-76
2022/09/28 03:31:00;;;;;;;4.45;4.10;;;;;;;11.68;100.00;63205.09;5045964;28;20205;-77
2022/09/28 03:33:28;;;;;;;6.25;4.00;;;;;;;11.76;100.00;63210.81;5046266;28;20222;-76
2022/09/28 03:35:55;;;;;;;4.00;3.70;;;;;;;11.77;100.00;63204.19;5044758;28;20511;-77
2022/09/28 03:38:22;;;;;;;13.57;4.40;;;;;;;11.87;100.00;63221.72;5028810;28;20217;-76
2022/09/28 03:40:55;;;;;;;4.28;3.75;;;;;;;11.93;100.00;63225.38;5045642;28;20198;-76
2022/09/28 03:43:23;;;;;;;4.78;3.67;;;;;;;11.97;100.00;63232.06;5043896;28;20287;-77
2022/09/28 03:45:53;;;;;;;5.53;5.00;;;;;;;12.01;100.00;63236.22;5044764;28;20198;-77
2022/09/28 03:48:24;;;;;;;4.85;4.45;;;;;;;12.07;100.00;63244.97;5047643;28;20263;-76
2022/09/28 03:50:55;;;;;;;5.15;3.78;;;;;;;12.09;100.00;63250.13;5040637;28;20199;-77
2022/09/28 03:53:22;;;;;;;4.60;3.90;;;;;;;12.14;100.00;63247.13;5025469;28;20250;-76
2022/09/28 03:55:52;;;;;;;5.97;3.65;;;;;;;12.10;100.00;63242.97;5045849;28;20214;-76
2022/09/28 03:58:18;;;;;;;4.20;3.90;;;;;;;11.95;100.00;63230.50;5033281;28;20221;-76
2022/09/28 04:00:45;;;;;;;6.32;4.10;;;;;;;12.22;100.00;63260.53;5038560;28;20466;-77
2022/09/28 04:03:12;;;;;;;4.25;3.55;;;;;;;12.26;100.00;63264.69;5045256;28;20214;-76
2022/09/28 04:05:39;;;;;;;3.92;3.72;;;;;;;12.34;100.00;63268.38;5047600;28;20217;-76
2022/09/28 04:08:07;;;;;;;4.50;4.20;;;;;;;12.39;100.00;63275.59;5042723;28;20306;-76
2022/09/28 04:10:34;;;;;;;5.13;3.50;;;;;;;12.43;100.00;63279.75;5044660;28;20517;-77
2022/09/28 04:13:01;;;;;;;6.05;4.43;;;;;;;12.44;100.00;63280.78;5042344;28;20289;-76
2022/09/28 04:15:28;;;;;;;4.65;4.13;;;;;;;12.47;100.00;63283.91;5039397;28;20201;-76
2022/09/28 04:17:55;;;;;;;5.82;4.40;;;;;;;12.39;100.00;63271.00;5044017;28;20242;-76
2022/09/28 04:20:22;;;;;;;4.07;3.60;;;;;;;12.38;100.00;63277.63;5042256;28;20234;-76
2022/09/28 04:22:50;;;;;;;4.43;4.00;;;;;;;12.40;100.00;63277.16;5045002;28;20539;-76
2022/09/28 04:25:18;;;;;;;7.90;4.72;;;;;;;12.37;100.00;63274.03;5033443;28;20516;-76
2022/09/28 04:30:30;;;;;;;8.98;4.90;;;;;;;12.45;100.00;63281.81;5028618;28;20197;-75
2022/09/28 04:32:56;;;;;;;4.68;4.25;;;;;;;12.50;100.00;63284.44;5033763;28;20218;-76
2022/09/28 04:35:23;;;;;;;4.57;4.10;;;;;;;12.53;100.00;63293.19;5038370;28;20443;-77
2022/09/28 04:37:50;;;;;;;11.20;4.35;;;;;;;12.60;100.00;63297.88;5028015;28;20218;-76
2022/09/28 04:40:18;;;;;;;5.65;5.07;;;;;;;12.70;100.00;63307.75;5026593;28;20230;-76
2022/09/28 04:42:52;;;;;;;4.43;4.10;;;;;;;12.75;100.00;63312.94;5034733;28;20222;-76
2022/09/28 04:45:19;;;;;;;5.07;3.90;;;;;;;12.82;100.00;63322.75;5038277;28;20198;-77
2022/09/28 04:47:46;;;;;;;5.90;3.63;;;;;;;12.90;100.00;63333.06;5045245;28;20224;-77
2022/09/28 04:50:13;;;;;;;4.07;3.65;;;;;;;12.95;100.00;63333.66;5043671;28;20487;-77
2022/09/28 04:52:40;;;;;;;5.53;3.20;;;;;;;13.01;100.00;63339.38;5036165;28;20233;-77
2022/09/28 04:55:07;;;;;;;4.20;3.33;;;;;;;13.06;100.00;63345.09;5035758;28;20266;-77
2022/09/28 04:57:35;;;;;;;4.25;3.85;;;;;;;13.14;100.00;63352.88;5037853;28;20241;-78
2022/09/28 05:00:03;;;;;;;3.72;3.45;;;;;;;13.21;100.00;63360.13;5042425;28;20272;-77
2022/09/28 05:02:31;;;;;;;5.32;3.40;;;;;;;13.26;100.00;63365.31;5044777;28;20248;-77
2022/09/28 05:04:57;;;;;;;3.60;3.40;;;;;;;13.33;100.00;63368.00;5044017;28;20229;-77
2022/09/28 05:07:25;;;;;;;3.88;3.55;;;;;;;13.42;100.00;63381.94;5044020;28;20214;-76
2022/09/28 05:09:51;;;;;;;3.75;3.45;;;;;;;13.54;100.00;63396.94;5033553;28;20202;-77
2022/09/28 05:12:19;;;;;;;3.17;3.08;;;;;;;13.62;100.00;63407.78;5038806;28;20221;-78
2022/09/28 05:14:47;;;;;;;4.22;3.92;;;;;;;13.62;100.00;63400.63;5026587;28;20209;-79
2022/09/28 05:17:14;;;;;;;6.40;3.63;;;;;;;13.60;100.00;63403.16;5041112;28;20222;-77
2022/09/28 05:19:41;;;;;;;3.80;3.60;;;;;;;13.67;100.00;63407.88;5044743;28;20240;-78
2022/09/28 05:22:13;;;;;;;4.20;3.97;;;;;;;13.64;100.00;63410.41;5030896;28;20238;-77
2022/09/28 05:24:40;;;;;;;6.07;3.97;;;;;;;13.61;100.00;63404.72;5046429;28;20194;-77
2022/09/28 05:27:07;;;;;;;10.50;4.05;;;;;;;13.62;100.00;63402.69;5046224;28;20225;-78
2022/09/28 05:29:34;;;;;;;6.15;4.18;;;;;;;13.65;100.00;63406.31;5045455;28;20198;-77
2022/09/28 05:32:03;;;;;;;4.47;4.10;;;;;;;13.66;100.00;63407.34;5046904;28;20280;-77
2022/09/28 05:34:29;;;;;;;7.72;4.05;;;;;;;13.67;100.00;63407.88;5042893;28;20248;-78
2022/09/28 05:36:56;;;;;;;5.32;4.55;;;;;;;13.78;100.00;63421.84;5042782;28;20234;-77
2022/09/28 05:39:23;;;;;;;3.85;3.65;;;;;;;13.87;100.00;63431.19;5044096;28;20226;-79
2022/09/28 05:41:50;;;;;;;4.57;4.15;;;;;;;13.91;100.00;63438.41;5045178;28;20218;-80
2022/09/28 05:44:17;;;;;;;4.72;4.13;;;;;;;13.90;100.00;63432.25;5035137;28;20203;-77
2022/09/28 05:46:44;;;;;;;4.50;4.20;;;;;;;14.05;100.00;63449.88;5039324;28;20267;-77
2022/09/28 05:49:12;;;;;;;4.20;3.90;;;;;;;14.08;100.00;63450.41;5038381;28;20190;-77
2022/09/28 05:51:39;;;;;;;7.50;3.78;;;;;;;14.25;100.00;63467.56;5048049;28;20202;-79
2022/09/28 05:54:06;;;;;;;4.50;4.18;;;;;;;14.30;100.00;63470.72;5043367;28;20281;-78
2022/09/28 05:56:33;;;;;;;12.10;5.78;;;;;;;14.26;100.00;63469.13;5032673;28;20237;-77
2022/09/28 05:59:00;;;;;;;13.13;6.85;;;;;;;14.15;100.00;63457.19;5033864;28;20553;-78
2022/09/28 06:01:27;;;;;;;10.43;7.10;;;;;;;14.05;100.00;63449.88;5041464;28;20278;-77
2022/09/28 06:03:54;;;;;;;10.65;6.82;;;;;;;13.96;100.00;63440.53;5048808;28;20242;-78
2022/09/28 06:06:22;;;;;;;9.07;6.78;;;;;;;14.05;100.00;63444.25;5043799;28;20206;-78
2022/09/28 06:08:49;;;;;;;14.98;6.28;;;;;;;14.14;100.00;63456.13;5045555;28;20303;-76
2022/09/28 06:11:16;;;;;;;10.32;6.10;;;;;;;14.14;100.00;63454.09;5045639;28;20525;-76
2022/09/28 06:13:43;;;;;;;7.65;6.55;;;;;;;14.29;100.00;63466.63;5034818;28;20434;-77
2022/09/28 06:16:15;;;;;;;9.75;5.78;;;;;;;14.27;100.00;63469.66;5040896;28;20220;-77
2022/09/28 06:18:42;;;;;;;6.60;6.00;;;;;;;14.34;100.00;63476.94;5038399;28;20232;-77
2022/09/28 06:21:10;;;;;;;6.30;5.75;;;;;;;14.46;100.00;63489.91;5037531;28;20221;-77
2022/09/28 06:23:38;;;;;;;6.35;5.75;;;;;;;14.60;100.00;63501.88;5037490;28;20245;-77
2022/09/28 06:26:05;;;;;;;5.57;5.18;;;;;;;14.72;100.00;63516.41;5039315;28;20194;-77
2022/09/28 06:28:32;;;;;;;5.20;4.70;;;;;;;14.59;100.00;63500.31;5039828;28;20437;-76
2022/09/28 06:31:00;;;;;;;6.28;5.68;;;;;;;14.21;100.00;63469.03;5034895;28;20503;-77
2022/09/28 06:33:26;;;;;;;6.28;5.70;;;;;;;14.26;100.00;63469.13;5040403;28;20220;-77
2022/09/28 06:35:53;;;;;;;6.80;6.13;;;;;;;14.45;100.00;63491.44;5038695;28;20437;-77
2022/09/28 06:38:20;;;;;;;9.23;5.65;;;;;;;14.34;100.00;63476.94;5039171;28;20287;-77
2022/09/28 06:40:48;;;;;;;6.55;5.95;;;;;;;14.29;100.00;63472.25;5039538;28;20217;-77
2022/09/28 06:43:15;;;;;;;8.07;5.90;;;;;;;14.39;100.00;63477.50;5036450;28;20225;-76
2022/09/28 06:45:43;;;;;;;9.40;6.20;;;;;;;14.57;100.00;63503.88;5037635;28;20202;-78
2022/09/28 06:48:12;;;;;;;6.43;5.82;;;;;;;14.67;100.00;63514.28;5039853;28;20218;-77
2022/09/28 06:50:40;;;;;;;6.72;5.72;;;;;;;14.82;100.00;63527.28;5039884;28;20240;-76
2022/09/28 06:53:10;;;;;;;5.93;5.43;;;;;;;14.95;100.00;63542.84;5036425;28;20256;-76
2022/09/28 06:55:39;;;;;;;7.10;5.18;;;;;;;15.02;100.00;63553.22;5039932;28;20197;-78
2022/09/28 06:58:11;;;;;;;6.68;5.75;;;;;;;15.17;100.00;63563.13;5040869;28;20255;-77
2022/09/28 07:00:38;;;;;;;10.70;5.97;;;;;;;15.20;100.00;63571.41;5041765;28;20277;-76
2022/09/28 07:03:07;;;;;;;5.13;4.63;;;;;;;15.21;100.00;63569.88;5042378;28;20225;-76
2022/09/28 07:05:36;;;;;;;7.35;5.20;;;;;;;14.88;100.00;63535.56;5045740;28;20194;-76
2022/09/28 07:08:04;;;;;;;9.05;5.80;;;;;;;14.77;100.00;63521.59;5039400;28;20241;-77
2022/09/28 07:10:31;;;;;;;7.40;5.10;;;;;;;14.74;100.00;63524.13;5048421;28;20212;-77
2022/09/28 07:13:02;;;;;;;6.05;3.88;;;;;;;14.81;100.00;63528.81;5040894;28;20442;-76
2022/09/28 07:15:32;;;;;;;6.50;5.13;;;;;;;14.64;100.00;63510.63;5038400;28;20213;-77
2022/09/28 07:17:59;;;;;;;5.25;4.85;;;;;;;14.64;100.00;63508.06;5039198;28;20477;-76
2022/09/28 07:20:26;;;;;;;8.80;5.80;;;;;;;14.54;100.00;63500.25;5043591;28;20276;-77
2022/09/28 07:22:54;;;;;;;10.23;5.53;;;;;;;14.53;100.00;63499.22;5032701;28;20227;-78
2022/09/28 07:25:21;;;;;;;10.15;6.47;;;;;;;14.17;100.00;63456.69;5040050;28;20229;-78
2022/09/28 07:27:48;;;;;;;8.68;7.15;;;;;;;14.19;100.00;63461.31;5035705;28;20214;-77
2022/09/28 07:30:16;;;;;;;10.98;7.88;;;;;;;14.19;100.00;63464.41;5039586;28;20305;-77
2022/09/28 07:32:45;;;;;;;11.43;7.93;;;;;;;14.03;100.00;63447.78;5040548;28;20445;-77
2022/09/28 07:35:12;;;;;;;14.38;9.95;;;;;;;14.19;100.00;63459.28;5047425;28;20196;-78
2022/09/28 07:37:39;;;;;;;20.35;10.57;;;;;;;14.19;100.00;63463.88;5043045;28;20260;-77
2022/09/28 07:42:53;;;;;;;22.65;12.85;;;;;;;13.89;100.00;63433.28;5044981;28;20235;-77
2022/09/28 07:45:23;;;;;;;17.50;11.10;;;;;;;14.13;100.00;63457.66;5043802;28;20285;-78
2022/09/28 07:47:55;;;;;;;16.92;12.00;;;;;;;14.41;100.00;63487.28;5047759;28;20246;-76
2022/09/28 07:50:22;;;;;;;13.65;11.32;;;;;;;14.74;100.00;63515.91;5045397;28;20430;-77
2022/09/28 07:52:48;;;;;;;21.52;11.32;;;;;;;14.89;100.00;63536.63;5045139;28;20588;-76
2022/09/28 07:55:15;;;;;;;13.23;9.77;;;;;;;15.13;100.00;63561.03;5044582;28;20201;-77
2022/09/28 07:57:43;;;;;;;14.60;9.05;;;;;;;15.16;100.00;63564.16;5045777;28;20217;-78
2022/09/28 08:00:11;;;;;;;14.35;8.57;;;;;;;15.54;100.00;63599.06;5044479;28;20256;-77
2022/09/28 08:02:38;;;;;;;12.82;8.95;;;;;;;15.68;100.00;63615.66;5046672;28;20263;-77
2022/09/28 08:05:08;;;;;;;10.73;8.43;;;;;;;16.08;100.00;63657.75;5048032;28;20205;-77
2022/09/28 08:07:37;;;;;;;8.68;7.78;;;;;;;16.39;100.00;63689.50;5043617;28;20267;-78
2022/09/28 08:10:04;;;;;;;12.00;8.15;;;;;;;16.13;100.00;63662.94;5046580;28;20205;-77
2022/09/28 08:12:31;;;;;;;10.60;7.70;;;;;;;16.58;100.00;63711.31;5044142;28;20259;-77
2022/09/28 08:14:58;;;;;;;12.82;8.48;;;;;;;16.86;100.00;63738.41;5043938;28;20204;-77
2022/09/28 08:17:25;;;;;;;12.13;9.65;;;;;;;16.81;100.00;63732.66;5047026;28;20221;-77
2022/09/28 08:22:38;;;;;;;11.32;9.48;;;;;;;17.22;100.00;63775.34;5045089;28;20288;-77
2022/09/28 08:25:06;;;;;;;10.65;8.27;;;;;;;17.32;100.00;63783.69;5046473;28;20197;-77
2022/09/28 08:27:33;;;;;;;12.90;8.52;;;;;;;17.46;100.00;63799.81;5043250;28;20276;-77
2022/09/28 08:30:00;;;;;;;9.77;7.10;;;;;;;17.94;100.00;63852.41;5045503;28;20236;-78
2022/09/28 08:32:28;;;;;;;11.10;7.32;;;;;;;17.80;100.00;63837.81;5045708;28;20221;-78
2022/09/28 08:34:55;;;;;;;9.32;7.22;;;;;;;17.72;100.00;63830.00;5045549;28;20198;-77
2022/09/28 08:37:22;;;;;;;9.13;7.07;;;;;;;17.93;100.00;63851.88;5042493;28;20384;-77
2022/09/28 08:39:51;;;;;;;8.18;6.45;;;;;;;18.09;100.00;63868.53;5046738;28;20206;-77
2022/09/28 08:42:31;;;;;;;6.38;5.32;;;;;;;17.77;100.00;63837.28;5043962;28;20217;-78
2022/09/28 08:45:06;;;;;;;7.82;5.43;;;;;;;17.70;100.00;63824.81;5044450;28;20420;-77
2022/09/28 08:50:33;;;;;;;10.32;3.97;;;;;;;17.16;100.00;63772.19;5045728;28;20428;-77
2022/09/28 08:53:13;;;;;;;7.57;4.55;;;;;;;17.19;100.00;63777.38;5044360;28;20216;-76
2022/09/28 08:55:44;;;;;;;7.07;4.55;;;;;;;17.07;100.00;63760.25;5039717;28;20229;-76
2022/09/28 08:58:13;;;;;;;5.55;3.83;;;;;;;17.25;100.00;63779.00;5043833;28;20221;-77
2022/09/28 09:00:46;;;;;;;4.13;3.58;;;;;;;17.21;100.00;63774.31;5044245;28;20581;-78
2022/09/28 09:03:16;;;;;;;6.95;3.10;;;;;;;17.48;100.00;63802.44;5046071;28;20263;-77
2022/09/28 09:05:57;;;;;;;5.68;3.20;;;;;;;17.55;100.00;63806.63;5043830;28;20255;-77
2022/09/28 09:08:40;;;;;;;5.82;3.08;;;;;;;17.54;100.00;63810.72;5043963;28;20263;-77
2022/09/28 09:11:19;;;;;;;3.10;2.90;;;;;;;17.62;100.00;63821.66;5045834;28;20185;-77
2022/09/28 09:14:08;;;;;;;3.53;3.22;;;;;;;17.83;100.00;63838.34;5038369;28;20386;-77
2022/09/28 09:16:46;;;;;;;4.07;3.78;;;;;;;17.83;100.00;63841.47;5044497;28;20198;-77
2022/09/28 09:19:17;;;;;;;3.75;3.42;;;;;;;17.91;100.00;63847.22;5044364;28;20193;-76
2022/09/28 09:21:49;;;;;;;3.53;3.25;;;;;;;18.07;100.00;63863.34;5039764;28;20213;-77
2022/09/28 09:24:26;;;;;;;12.38;3.55;;;;;;;18.21;100.00;63875.88;5033851;28;20198;-77
2022/09/28 09:27:05;;;;;;;5.60;3.65;;;;;;;18.40;100.00;63895.19;5036856;28;20525;-77
2022/09/28 09:29:44;;;;;;;5.82;4.00;;;;;;;18.60;100.00;63918.59;5047369;28;20220;-77
2022/09/28 09:32:29;;;;;;;3.72;3.33;;;;;;;18.73;100.00;63934.72;5046965;28;20232;-77
2022/09/28 09:35:22;;;;;;;5.57;3.55;;;;;;;18.86;100.00;63945.19;5048944;28;20255;-76
2022/09/28 09:38:08;;;;;;;5.65;3.28;;;;;;;18.79;100.00;63938.41;5046605;28;20221;-78
2022/09/28 09:40:52;;;;;;;8.57;3.80;;;;;;;18.88;100.00;63949.84;5048466;28;20284;-77
2022/09/28 09:43:48;;;;;;;5.35;3.88;;;;;;;19.05;100.00;63967.56;5049036;28;20231;-76
2022/09/28 09:46:19;;;;;;;7.72;3.47;;;;;;;19.02;100.00;63959.25;5047920;28;20197;-76
2022/09/28 09:48:53;;;;;;;8.68;3.70;;;;;;;19.00;100.00;63960.28;5048704;28;20217;-77
2022/09/28 09:51:25;;;;;;;6.85;3.30;;;;;;;19.10;99.00;63975.88;5049414;28;20204;-78
2022/09/28 09:53:58;;;;;;;5.72;3.40;;;;;;;19.12;100.00;63972.28;5048948;28;20270;-77
2022/09/28 09:56:34;;;;;;;9.93;3.85;;;;;;;19.25;100.00;63988.41;5047706;28;20260;-76
2022/09/28 09:59:07;;;;;;;5.97;3.08;;;;;;;19.18;98.14;63979.06;5048617;28;20619;-76
2022/09/28 10:01:38;;;;;;;8.00;3.58;;;;;;;19.38;99.19;64002.50;5048109;28;20223;-76
2022/09/28 10:04:14;;;;;;;5.85;2.70;;;;;;;19.54;95.79;64013.50;5044803;28;20205;-77
2022/09/28 10:06:42;;;;;;;5.57;3.40;;;;;;;19.61;90.68;64020.28;5041041;28;20197;-77
2022/09/28 10:09:16;;;;;;;4.47;3.10;;;;;;;19.55;88.68;64020.25;5045390;28;20206;-77
2022/09/28 10:11:46;;;;;;;5.80;3.58;;;;;;;19.41;87.23;64008.22;5044338;28;20240;-77
2022/09/28 10:14:18;;;;;;;4.13;2.80;;;;;;;19.50;89.66;64015.03;5047099;28;20213;-77
2022/09/28 10:16:47;;;;;;;7.90;3.50;;;;;;;19.60;87.35;64024.41;5036221;28;20232;-77
2022/09/28 10:19:16;;;;;;;6.20;3.25;;;;;;;19.75;87.39;64040.06;5042820;28;20486;-77
2022/09/28 10:21:45;;;;;;;8.95;2.55;;;;;;;19.86;81.51;64054.13;5046445;28;20275;-75
2022/09/28 10:24:19;;;;;;;5.97;2.42;;;;;;;19.94;85.04;64059.88;5044587;28;20256;-76
2022/09/28 10:26:50;;;;;;;2.33;2.08;;;;;;;19.78;80.45;64043.72;5045895;28;20277;-78
2022/09/28 10:29:21;;;;;;;4.28;3.45;;;;;;;20.02;83.99;64068.75;5045590;28;20228;-76
2022/09/28 10:31:50;;;;;;;3.08;2.63;;;;;;;19.93;85.01;64058.84;5044895;28;20200;-77
2022/09/28 10:34:24;;;;;;;4.45;2.50;;;;;;;20.12;79.01;64076.59;5045547;28;20213;-80
2022/09/28 10:36:54;;;;;;;3.15;2.00;;;;;;;20.28;76.01;64097.97;5046778;28;20213;-77
2022/09/28 10:39:30;;;;;;;5.47;2.10;;;;;;;20.48;75.75;64116.75;5045608;28;20206;-77
2022/09/28 10:41:58;;;;;;;2.72;2.50;;;;;;;20.42;76.91;64104.81;5050939;28;20228;-76
2022/09/28 10:44:27;;;;;;;2.78;2.20;;;;;;;20.57;71.55;64128.25;5041037;28;20228;-76
2022/09/28 10:47:00;;;;;;;4.47;2.92;;;;;;;20.66;71.47;64135.56;5046282;28;20224;-76
2022/09/28 10:49:28;;;;;;;2.17;1.95;;;;;;;20.73;69.22;64144.94;5049645;28;20193;-77
2022/09/28 10:51:56;;;;;;;1.77;1.67;;;;;;;20.96;69.03;64163.25;5044478;28;20221;-77
2022/09/28 10:54:25;;;;;;;4.60;2.38;;;;;;;21.08;68.99;64178.91;5044031;28;20197;-77
2022/09/28 10:56:54;;;;;;;2.67;1.95;;;;;;;21.00;62.60;64165.38;5048338;28;20271;-77
2022/09/28 10:59:37;;;;;;;3.33;1.65;;;;;;;21.02;59.80;64169.53;5046026;28;20197;-77
2022/09/28 11:02:19;;;;;;;3.80;1.63;;;;;;;21.16;61.30;64192.44;5039193;28;20240;-77
2022/09/28 11:04:51;;;;;;;3.17;1.40;;;;;;;21.30;58.56;64201.34;5045546;28;20216;-76
2022/09/28 11:07:19;;;;;;;3.15;2.25;;;;;;;21.38;56.81;64212.31;5045891;28;20240;-78
2022/09/28 11:09:48;;;;;;;2.60;2.40;;;;;;;21.40;55.19;64209.72;5045749;28;20200;-77
2022/09/28 11:12:19;;;;;;;2.78;1.70;;;;;;;21.36;55.28;64210.75;5047766;28;20233;-77
2022/09/28 11:14:51;;;;;;;4.43;1.92;;;;;;;21.44;55.69;64211.31;5046143;28;20198;-77
2022/09/28 11:17:26;;;;;;;3.58;1.75;;;;;;;21.29;54.99;64200.84;5046586;28;20221;-78
2022/09/28 11:19:53;;;;;;;2.17;1.40;;;;;;;21.27;55.92;64198.22;5046769;28;20228;-77
2022/09/28 11:22:27;;;;;;;2.05;1.90;;;;;;;21.50;59.69;64220.19;5044044;28;20548;-78
2022/09/28 11:25:13;;;;;;;5.20;1.48;;;;;;;21.66;62.16;64239.47;5045909;28;20202;-77
2022/09/28 11:27:40;;;;;;;2.05;1.83;;;;;;;21.87;59.68;64260.94;5045997;28;20224;-76
2022/09/28 11:30:23;;;;;;;2.00;1.55;;;;;;;21.89;53.56;64259.91;5047315;28;20212;-76
2022/09/28 11:32:51;;;;;;;1.70;1.60;;;;;;;21.99;54.08;64273.47;5036028;28;20217;-77
2022/09/28 11:35:22;;;;;;;2.45;1.58;;;;;;;22.02;53.48;64276.09;5046086;28;20390;-77
2022/09/28 11:38:22;;;;;;;3.30;1.60;;;;;;;22.18;57.67;64290.19;5047282;28;20221;-76
2022/09/28 11:41:02;;;;;;;5.38;1.75;;;;;;;22.20;53.20;64295.41;5045449;28;20246;-76
2022/09/28 11:44:10;;;;;;;2.05;1.58;;;;;;;21.94;51.08;64268.25;5045787;28;20217;-77
2022/09/28 11:46:51;;;;;;;2.63;1.67;;;;;;;21.73;52.54;64249.41;4985651;28;20633;-77
2022/09/28 11:49:30;;;;;;;1.77;1.50;;;;;;;21.96;57.12;64267.75;5034529;28;20228;-77
2022/09/28 11:52:03;;;;;;;2.83;1.48;;;;;;;22.08;52.01;64284.94;5046142;28;20568;-77